nws-alerts: Checking more than four warning/county codes can delay the loading of your pages. You should use a cron job to get the data.
EllijayWeather Station Historical Data
Daily Summary for September 16, 2018 Units:  English    Metric   Both
Daily Weekly Monthly Yearly Custom
  High: Low: Average:
Temperature: 75.4 °F 69.6 °F 71.8 °F
Dew Point: 71.1 °F 66.6 °F 68.3 °F
Humidity: 90% 84% 89%
Wind Speed: 0mph 0mph 0mph
Wind Gust: 0mph - -
Wind- - North
Pressure: 29.92 in 29.81 in -
Precipitation: 0.05 in    
Historical Graphs
 
 
Tabular Data for September 16, 2018
Time Temperature Dew Point Pressure Wind Wind Speed Wind Gust Humidity Rainfall Rate (Hourly) solar
00:04 71.4 °F 68.4 °F 29.92 in Calm     90% 0 in meteobridge W/m2
00:09 71.4 °F 68.4 °F 29.92 in Calm     90% 0 in meteobridge W/m2
00:14 71.4 °F 68.4 °F 29.92 in Calm     90% 0 in meteobridge W/m2
00:19 71.4 °F 68.4 °F 29.92 in Calm     90% 0 in meteobridge W/m2
00:24 71.4 °F 68.4 °F 29.92 in Calm     90% 0 in meteobridge W/m2
00:29 71.4 °F 68.4 °F 29.92 in Calm     90% 0 in meteobridge W/m2
00:34 71.2 °F 68.2 °F 29.91 in Calm     90% 0 in meteobridge W/m2
00:39 71.2 °F 68.2 °F 29.92 in Calm     90% 0 in meteobridge W/m2
00:44 71.1 °F 68 °F 29.91 in Calm     90% 0 in meteobridge W/m2
00:49 71.1 °F 68 °F 29.91 in Calm     90% 0 in meteobridge W/m2
00:54 71.1 °F 68 °F 29.91 in Calm     90% 0 in meteobridge W/m2
00:59 71.1 °F 68 °F 29.91 in Calm     90% 0 in meteobridge W/m2
01:04 70.9 °F 67.8 °F 29.91 in Calm     90% 0 in meteobridge W/m2
01:09 70.9 °F 67.8 °F 29.91 in Calm     90% 0 in meteobridge W/m2
01:14 70.9 °F 67.8 °F 29.91 in Calm     90% 0 in meteobridge W/m2
01:19 70.7 °F 67.6 °F 29.91 in Calm     90% 0 in meteobridge W/m2
01:24 70.7 °F 67.6 °F 29.91 in Calm     90% 0 in meteobridge W/m2
01:29 70.7 °F 67.6 °F 29.91 in Calm     90% 0 in meteobridge W/m2
01:34 70.9 °F 67.8 °F 29.91 in Calm     90% 0 in meteobridge W/m2
01:39 70.9 °F 67.8 °F 29.90 in Calm     90% 0 in meteobridge W/m2
01:44 70.9 °F 67.8 °F 29.90 in Calm     90% 0 in meteobridge W/m2
01:49 70.7 °F 67.6 °F 29.90 in Calm     90% 0 in meteobridge W/m2
01:54 70.5 °F 67.5 °F 29.90 in Calm     90% 0 in meteobridge W/m2
01:59 70.5 °F 67.5 °F 29.90 in Calm     90% 0 in meteobridge W/m2
02:04 70.5 °F 67.5 °F 29.90 in Calm     90% 0 in meteobridge W/m2
02:09 70.5 °F 67.5 °F 29.90 in Calm     90% 0 in meteobridge W/m2
02:14 70.5 °F 67.5 °F 29.90 in Calm     90% 0 in meteobridge W/m2
02:19 70.5 °F 67.5 °F 29.90 in Calm     90% 0 in meteobridge W/m2
02:24 70.5 °F 67.5 °F 29.89 in Calm     90% 0 in meteobridge W/m2
02:29 70.5 °F 67.5 °F 29.89 in Calm     90% 0 in meteobridge W/m2
02:34 70.5 °F 67.5 °F 29.89 in Calm     90% 0 in meteobridge W/m2
02:39 70.5 °F 67.5 °F 29.90 in Calm     90% 0 in meteobridge W/m2
02:44 70.3 °F 67.3 °F 29.89 in Calm     90% 0 in meteobridge W/m2
02:49 70.3 °F 67.3 °F 29.90 in Calm     90% 0 in meteobridge W/m2
02:54 70.3 °F 67.3 °F 29.89 in Calm     90% 0 in meteobridge W/m2
02:59 70.3 °F 67.3 °F 29.89 in Calm     90% 0 in meteobridge W/m2
03:04 70.3 °F 67.3 °F 29.89 in Calm     90% 0 in meteobridge W/m2
03:09 70.3 °F 67.3 °F 29.89 in Calm     90% 0 in meteobridge W/m2
03:14 70.2 °F 67.1 °F 29.88 in Calm     90% 0 in meteobridge W/m2
03:19 70.3 °F 67.3 °F 29.88 in Calm     90% 0 in meteobridge W/m2
03:24 70.2 °F 67.1 °F 29.88 in Calm     90% 0 in meteobridge W/m2
03:29 70.2 °F 67.1 °F 29.88 in Calm     90% 0 in meteobridge W/m2
03:34 70.2 °F 67.1 °F 29.88 in Calm     90% 0 in meteobridge W/m2
03:39 70.2 °F 67.1 °F 29.88 in Calm     90% 0 in meteobridge W/m2
03:44 70.2 °F 67.1 °F 29.88 in Calm     90% 0 in meteobridge W/m2
03:49 70.2 °F 67.1 °F 29.88 in Calm     90% 0 in meteobridge W/m2
03:54 70.2 °F 67.1 °F 29.88 in Calm     90% 0 in meteobridge W/m2
03:59 70.2 °F 67.1 °F 29.87 in Calm     90% 0 in meteobridge W/m2
04:04 70.2 °F 67.1 °F 29.87 in Calm     90% 0 in meteobridge W/m2
04:09 70 °F 66.9 °F 29.87 in Calm     90% 0 in meteobridge W/m2
04:14 70 °F 66.9 °F 29.87 in Calm     90% 0 in meteobridge W/m2
04:19 70.2 °F 67.1 °F 29.87 in Calm     90% 0 in meteobridge W/m2
04:24 70.2 °F 67.1 °F 29.86 in Calm     90% 0 in meteobridge W/m2
04:29 70.3 °F 67.3 °F 29.86 in Calm     90% 0 in meteobridge W/m2
04:34 70.5 °F 67.5 °F 29.86 in Calm     90% 0 in meteobridge W/m2
04:39 70.7 °F 67.3 °F 29.86 in Calm     89% 0 in meteobridge W/m2
04:44 70.9 °F 67.5 °F 29.86 in Calm     89% 0 in meteobridge W/m2
04:49 70.9 °F 67.5 °F 29.86 in Calm     89% 0 in meteobridge W/m2
04:54 70.9 °F 67.5 °F 29.86 in Calm     89% 0 in meteobridge W/m2
04:59 70.9 °F 67.5 °F 29.86 in Calm     89% 0 in meteobridge W/m2
05:04 70.9 °F 67.5 °F 29.86 in Calm     89% 0 in meteobridge W/m2
05:09 70.9 °F 67.5 °F 29.86 in Calm     89% 0 in meteobridge W/m2
05:14 70.9 °F 67.5 °F 29.86 in Calm     89% 0 in meteobridge W/m2
05:19 71.1 °F 67.6 °F 29.86 in Calm     89% 0 in meteobridge W/m2
05:24 71.1 °F 67.6 °F 29.86 in Calm     89% 0 in meteobridge W/m2
05:29 71.1 °F 67.6 °F 29.86 in Calm     89% 0 in meteobridge W/m2
05:34 71.1 °F 67.6 °F 29.86 in Calm     89% 0 in meteobridge W/m2
05:39 71.1 °F 67.6 °F 29.85 in Calm     89% 0 in meteobridge W/m2
05:44 70.9 °F 67.5 °F 29.85 in Calm     89% 0 in meteobridge W/m2
05:49 70.9 °F 67.5 °F 29.85 in Calm     89% 0 in meteobridge W/m2
05:54 70.9 °F 67.5 °F 29.85 in Calm     89% 0 in meteobridge W/m2
05:59 70.9 °F 67.5 °F 29.85 in Calm     89% 0 in meteobridge W/m2
06:04 71.1 °F 67.3 °F 29.85 in Calm     88% 0 in meteobridge W/m2
06:09 71.1 °F 67.3 °F 29.85 in Calm     88% 0 in meteobridge W/m2
06:14 71.1 °F 67.3 °F 29.85 in Calm     88% 0 in meteobridge W/m2
06:19 71.1 °F 67.3 °F 29.85 in Calm     88% 0 in meteobridge W/m2
06:24 71.2 °F 67.5 °F 29.85 in Calm     88% 0.01 in meteobridge W/m2
06:29 71.1 °F 67.3 °F 29.85 in Calm     88% 0.01 in meteobridge W/m2
06:34 70.9 °F 67.1 °F 29.85 in Calm     88% 0.01 in meteobridge W/m2
06:39 70.9 °F 67.5 °F 29.85 in Calm     89% 0.01 in meteobridge W/m2
06:44 70.9 °F 67.5 °F 29.85 in Calm     89% 0.01 in meteobridge W/m2
06:49 70.7 °F 67.3 °F 29.85 in Calm     89% 0.01 in meteobridge W/m2
06:54 70.5 °F 67.1 °F 29.86 in Calm     89% 0.01 in meteobridge W/m2
06:59 70.5 °F 67.1 °F 29.86 in Calm     89% 0.01 in meteobridge W/m2
07:04 70.5 °F 67.5 °F 29.86 in Calm     90% 0.01 in meteobridge W/m2
07:09 70.3 °F 66.9 °F 29.86 in Calm     89% 0.01 in meteobridge W/m2
07:14 70.3 °F 67.3 °F 29.85 in Calm     90% 0.01 in meteobridge W/m2
07:19 70.3 °F 67.3 °F 29.86 in Calm     90% 0.01 in meteobridge W/m2
07:24 70.3 °F 66.9 °F 29.86 in Calm     89% 0 in meteobridge W/m2
07:29 70.3 °F 66.9 °F 29.86 in Calm     89% 0 in meteobridge W/m2
07:34 70.3 °F 66.9 °F 29.86 in Calm     89% 0 in meteobridge W/m2
07:39 70.3 °F 66.9 °F 29.86 in Calm     89% 0 in meteobridge W/m2
07:44 70.3 °F 66.9 °F 29.86 in Calm     89% 0 in meteobridge W/m2
07:49 70.3 °F 67.3 °F 29.86 in Calm     90% 0 in meteobridge W/m2
07:54 70.3 °F 66.9 °F 29.86 in Calm     89% 0 in meteobridge W/m2
07:59 70.3 °F 66.9 °F 29.86 in Calm     89% 0 in meteobridge W/m2
08:04 70.3 °F 67.3 °F 29.87 in Calm     90% 0 in meteobridge W/m2
08:09 70.3 °F 66.9 °F 29.87 in Calm     89% 0 in meteobridge W/m2
08:14 70.5 °F 67.5 °F 29.87 in Calm     90% 0 in meteobridge W/m2
08:19 70.3 °F 66.9 °F 29.87 in Calm     89% 0 in meteobridge W/m2
08:24 70.3 °F 66.9 °F 29.87 in Calm     89% 0 in meteobridge W/m2
08:29 70.3 °F 66.9 °F 29.87 in Calm     89% 0 in meteobridge W/m2
08:34 70.3 °F 66.9 °F 29.87 in Calm     89% 0 in meteobridge W/m2
08:39 70.2 °F 66.7 °F 29.87 in Calm     89% 0 in meteobridge W/m2
08:44 70.2 °F 67.1 °F 29.87 in Calm     90% 0.01 in meteobridge W/m2
08:49 70 °F 66.9 °F 29.87 in Calm     90% 0.01 in meteobridge W/m2
08:54 69.8 °F 66.7 °F 29.87 in Calm     90% 0.01 in meteobridge W/m2
08:59 69.8 °F 66.7 °F 29.86 in Calm     90% 0.01 in meteobridge W/m2
09:04 69.6 °F 66.6 °F 29.86 in Calm     90% 0.01 in meteobridge W/m2
09:09 69.6 °F 66.6 °F 29.86 in Calm     90% 0.01 in meteobridge W/m2
09:14 69.6 °F 66.6 °F 29.86 in Calm     90% 0.01 in meteobridge W/m2
09:19 69.6 °F 66.6 °F 29.87 in Calm     90% 0.01 in meteobridge W/m2
09:24 69.6 °F 66.6 °F 29.87 in Calm     90% 0.01 in meteobridge W/m2
09:29 69.6 °F 66.6 °F 29.87 in Calm     90% 0.01 in meteobridge W/m2
09:34 69.6 °F 66.6 °F 29.87 in Calm     90% 0.01 in meteobridge W/m2
09:39 69.6 °F 66.6 °F 29.86 in Calm     90% 0.01 in meteobridge W/m2
09:44 69.6 °F 66.6 °F 29.87 in Calm     90% 0.02 in meteobridge W/m2
09:49 69.6 °F 66.6 °F 29.87 in Calm     90% 0.02 in meteobridge W/m2
09:54 69.8 °F 66.7 °F 29.87 in Calm     90% 0.02 in meteobridge W/m2
09:59 70 °F 66.9 °F 29.87 in Calm     90% 0.02 in meteobridge W/m2
10:04 70.2 °F 67.1 °F 29.87 in Calm     90% 0.02 in meteobridge W/m2
10:09 70.3 °F 67.3 °F 29.87 in Calm     90% 0.02 in meteobridge W/m2
10:14 70.3 °F 67.3 °F 29.87 in Calm     90% 0.02 in meteobridge W/m2
10:19 70.5 °F 67.5 °F 29.87 in Calm     90% 0.02 in meteobridge W/m2
10:24 70.5 °F 67.5 °F 29.87 in Calm     90% 0.02 in meteobridge W/m2
10:29 70.5 °F 67.5 °F 29.87 in Calm     90% 0.02 in meteobridge W/m2
10:34 70.5 °F 67.5 °F 29.87 in Calm     90% 0.02 in meteobridge W/m2
10:39 70.5 °F 67.5 °F 29.87 in Calm     90% 0.01 in meteobridge W/m2
10:44 70.7 °F 67.6 °F 29.87 in Calm     90% 0 in meteobridge W/m2
10:49 70.9 °F 67.8 °F 29.87 in Calm     90% 0 in meteobridge W/m2
10:54 71.1 °F 68 °F 29.86 in Calm     90% 0 in meteobridge W/m2
10:59 71.2 °F 68.2 °F 29.86 in Calm     90% 0 in meteobridge W/m2
11:04 71.4 °F 68.4 °F 29.86 in Calm     90% 0 in meteobridge W/m2
11:09 71.4 °F 68.4 °F 29.86 in Calm     90% 0 in meteobridge W/m2
11:14 71.6 °F 68.5 °F 29.86 in Calm     90% 0 in meteobridge W/m2
11:19 71.8 °F 68.7 °F 29.86 in Calm     90% 0 in meteobridge W/m2
11:24 71.8 °F 68.7 °F 29.86 in Calm     90% 0 in meteobridge W/m2
11:29 72 °F 68.9 °F 29.86 in Calm     90% 0 in meteobridge W/m2
11:34 72 °F 68.9 °F 29.86 in Calm     90% 0 in meteobridge W/m2
11:39 72.1 °F 69.1 °F 29.86 in Calm     90% 0 in meteobridge W/m2
11:44 72.3 °F 68.9 °F 29.87 in Calm     89% 0 in meteobridge W/m2
11:49 72.5 °F 69.1 °F 29.87 in Calm     89% 0 in meteobridge W/m2
11:54 72.5 °F 69.1 °F 29.86 in Calm     89% 0 in meteobridge W/m2
11:59 72.7 °F 69.3 °F 29.86 in Calm     89% 0 in meteobridge W/m2
12:04 72.9 °F 69.4 °F 29.86 in Calm     89% 0 in meteobridge W/m2
12:09 72.9 °F 69.4 °F 29.85 in Calm     89% 0 in meteobridge W/m2
12:14 73 °F 69.3 °F 29.85 in Calm     88% 0 in meteobridge W/m2
12:19 73.2 °F 69.8 °F 29.85 in Calm     89% 0 in meteobridge W/m2
12:24 73.6 °F 69.8 °F 29.85 in Calm     88% 0 in meteobridge W/m2
12:29 73.8 °F 70 °F 29.85 in Calm     88% 0 in meteobridge W/m2
12:34 74.1 °F 70.3 °F 29.85 in Calm     88% 0 in meteobridge W/m2
12:39 74.3 °F 70.2 °F 29.85 in Calm     87% 0 in meteobridge W/m2
12:44 74.5 °F 70 °F 29.85 in Calm     86% 0 in meteobridge W/m2
12:49 74.7 °F 70.2 °F 29.85 in Calm     86% 0 in meteobridge W/m2
12:54 74.7 °F 70.2 °F 29.85 in Calm     86% 0 in meteobridge W/m2
12:59 74.7 °F 69.8 °F 29.85 in Calm     85% 0 in meteobridge W/m2
13:04 74.7 °F 69.8 °F 29.85 in Calm     85% 0 in meteobridge W/m2
13:09 74.7 °F 69.8 °F 29.85 in Calm     85% 0 in meteobridge W/m2
13:14 74.7 °F 70.2 °F 29.85 in Calm     86% 0 in meteobridge W/m2
13:19 74.7 °F 69.8 °F 29.85 in Calm     85% 0 in meteobridge W/m2
13:24 74.7 °F 69.8 °F 29.85 in Calm     85% 0 in meteobridge W/m2
13:29 74.7 °F 69.4 °F 29.84 in Calm     84% 0 in meteobridge W/m2
13:34 74.7 °F 69.4 °F 29.84 in Calm     84% 0 in meteobridge W/m2
13:39 74.8 °F 69.6 °F 29.84 in Calm     84% 0 in meteobridge W/m2
13:44 74.8 °F 70 °F 29.84 in Calm     85% 0 in meteobridge W/m2
13:49 75 °F 70.2 °F 29.84 in Calm     85% 0 in meteobridge W/m2
13:54 75 °F 70.5 °F 29.84 in Calm     86% 0 in meteobridge W/m2
13:59 75 °F 70.5 °F 29.84 in Calm     86% 0 in meteobridge W/m2
14:04 74.8 °F 70 °F 29.84 in Calm     85% 0 in meteobridge W/m2
14:09 74.7 °F 70.2 °F 29.84 in Calm     86% 0 in meteobridge W/m2
14:14 74.5 °F 69.6 °F 29.84 in Calm     85% 0 in meteobridge W/m2
14:19 74.5 °F 69.6 °F 29.84 in Calm     85% 0 in meteobridge W/m2
14:24 74.5 °F 70 °F 29.84 in Calm     86% 0 in meteobridge W/m2
14:29 74.1 °F 70 °F 29.84 in Calm     87% 0.01 in meteobridge W/m2
14:34 73.9 °F 70.2 °F 29.84 in Calm     88% 0.01 in meteobridge W/m2
14:39 73.9 °F 70.2 °F 29.83 in Calm     88% 0.01 in meteobridge W/m2
14:44 73.9 °F 70.2 °F 29.83 in Calm     88% 0.01 in meteobridge W/m2
14:49 73.9 °F 70.2 °F 29.83 in Calm     88% 0.01 in meteobridge W/m2
14:54 73.9 °F 70.5 °F 29.83 in Calm     89% 0.01 in meteobridge W/m2
14:59 74.1 °F 70.3 °F 29.83 in Calm     88% 0.01 in meteobridge W/m2
15:04 74.5 °F 70.7 °F 29.83 in Calm     88% 0.01 in meteobridge W/m2
15:09 74.7 °F 70.9 °F 29.83 in Calm     88% 0.01 in meteobridge W/m2
15:14 74.8 °F 71.1 °F 29.83 in Calm     88% 0.01 in meteobridge W/m2
15:19 74.8 °F 70.3 °F 29.83 in Calm     86% 0.01 in meteobridge W/m2
15:24 74.8 °F 70.3 °F 29.83 in Calm     86% 0.01 in meteobridge W/m2
15:29 74.8 °F 69.6 °F 29.83 in Calm     84% 0 in meteobridge W/m2
15:34 74.8 °F 70 °F 29.82 in Calm     85% 0 in meteobridge W/m2
15:39 74.8 °F 70 °F 29.82 in Calm     85% 0 in meteobridge W/m2
15:44 74.7 °F 69.8 °F 29.82 in Calm     85% 0 in meteobridge W/m2
15:49 74.5 °F 69.6 °F 29.82 in Calm     85% 0 in meteobridge W/m2
15:54 74.5 °F 69.6 °F 29.82 in Calm     85% 0 in meteobridge W/m2
15:59 74.7 °F 69.8 °F 29.82 in Calm     85% 0 in meteobridge W/m2
16:04 74.8 °F 70 °F 29.82 in Calm     85% 0 in meteobridge W/m2
16:09 74.8 °F 70 °F 29.81 in Calm     85% 0 in meteobridge W/m2
16:14 75 °F 70.2 °F 29.81 in Calm     85% 0 in meteobridge W/m2
16:19 75.2 °F 70.3 °F 29.81 in Calm     85% 0 in meteobridge W/m2
16:24 75.4 °F 70.5 °F 29.81 in Calm     85% 0 in meteobridge W/m2
16:29 75.4 °F 70.5 °F 29.81 in Calm     85% 0 in meteobridge W/m2
16:34 75 °F 70.2 °F 29.82 in Calm     85% 0 in meteobridge W/m2
16:39 74.8 °F 70.3 °F 29.82 in Calm     86% 0 in meteobridge W/m2
16:44 74.7 °F 70.5 °F 29.82 in Calm     87% 0 in meteobridge W/m2
16:49 74.1 °F 70 °F 29.82 in Calm     87% 0 in meteobridge W/m2
16:54 74.1 °F 70.3 °F 29.82 in Calm     88% 0 in meteobridge W/m2
16:59 73.8 °F 70 °F 29.82 in Calm     88% 0 in meteobridge W/m2
17:04 73.6 °F 69.8 °F 29.82 in Calm     88% 0 in meteobridge W/m2
17:09 73.6 °F 69.8 °F 29.82 in Calm     88% 0 in meteobridge W/m2
17:14 73.6 °F 70.2 °F 29.82 in Calm     89% 0 in meteobridge W/m2
17:19 73.4 °F 70 °F 29.82 in Calm     89% 0 in meteobridge W/m2
17:24 73.2 °F 69.8 °F 29.82 in Calm     89% 0 in meteobridge W/m2
17:29 73.2 °F 69.8 °F 29.82 in Calm     89% 0 in meteobridge W/m2
17:34 73 °F 69.6 °F 29.82 in Calm     89% 0 in meteobridge W/m2
17:39 73 °F 69.6 °F 29.82 in Calm     89% 0 in meteobridge W/m2
17:44 73 °F 69.6 °F 29.82 in Calm     89% 0 in meteobridge W/m2
17:49 73 °F 69.6 °F 29.82 in Calm     89% 0 in meteobridge W/m2
17:54 73 °F 69.6 °F 29.82 in Calm     89% 0 in meteobridge W/m2
17:59 73 °F 69.6 °F 29.82 in Calm     89% 0 in meteobridge W/m2
18:04 73 °F 69.6 °F 29.82 in Calm     89% 0 in meteobridge W/m2
18:09 73 °F 69.6 °F 29.82 in Calm     89% 0 in meteobridge W/m2
18:14 73 °F 69.6 °F 29.82 in Calm     89% 0 in meteobridge W/m2
18:19 73 °F 69.6 °F 29.82 in Calm     89% 0 in meteobridge W/m2
18:24 73 °F 69.6 °F 29.82 in Calm     89% 0 in meteobridge W/m2
18:29 73 °F 69.6 °F 29.82 in Calm     89% 0 in meteobridge W/m2
18:34 73 °F 69.6 °F 29.82 in Calm     89% 0 in meteobridge W/m2
18:39 73 °F 69.6 °F 29.82 in Calm     89% 0 in meteobridge W/m2
18:44 73 °F 69.6 °F 29.82 in Calm     89% 0 in meteobridge W/m2
18:49 73 °F 69.6 °F 29.82 in Calm     89% 0 in meteobridge W/m2
18:54 73 °F 69.6 °F 29.82 in Calm     89% 0 in meteobridge W/m2
18:59 73 °F 69.6 °F 29.82 in Calm     89% 0 in meteobridge W/m2
19:04 72.9 °F 69.4 °F 29.82 in Calm     89% 0 in meteobridge W/m2
19:09 72.9 °F 69.4 °F 29.82 in Calm     89% 0 in meteobridge W/m2
19:14 72.7 °F 69.3 °F 29.82 in Calm     89% 0 in meteobridge W/m2
19:19 72.3 °F 68.9 °F 29.82 in Calm     89% 0 in meteobridge W/m2
19:24 72.3 °F 68.9 °F 29.82 in Calm     89% 0 in meteobridge W/m2
19:29 72.3 °F 68.9 °F 29.82 in Calm     89% 0 in meteobridge W/m2
19:34 72.3 °F 68.9 °F 29.82 in Calm     89% 0 in meteobridge W/m2
19:39 72.1 °F 68.7 °F 29.82 in Calm     89% 0 in meteobridge W/m2
19:44 72.1 °F 68.7 °F 29.82 in Calm     89% 0 in meteobridge W/m2
19:49 72.1 °F 68.7 °F 29.82 in Calm     89% 0 in meteobridge W/m2
19:54 72.1 °F 68.7 °F 29.82 in Calm     89% 0 in meteobridge W/m2
19:59 72 °F 68.5 °F 29.82 in Calm     89% 0 in meteobridge W/m2
20:04 72 °F 68.5 °F 29.82 in Calm     89% 0 in meteobridge W/m2
20:09 72 °F 68.5 °F 29.82 in Calm     89% 0 in meteobridge W/m2
20:14 72 °F 68.5 °F 29.82 in Calm     89% 0 in meteobridge W/m2
20:19 71.8 °F 68.4 °F 29.82 in Calm     89% 0 in meteobridge W/m2
20:24 71.8 °F 68.4 °F 29.82 in Calm     89% 0 in meteobridge W/m2
20:29 71.8 °F 68.4 °F 29.83 in Calm     89% 0 in meteobridge W/m2
20:34 71.8 °F 68.4 °F 29.83 in Calm     89% 0 in meteobridge W/m2
20:39 71.8 °F 68.4 °F 29.83 in Calm     89% 0 in meteobridge W/m2
20:44 71.8 °F 68.4 °F 29.83 in Calm     89% 0 in meteobridge W/m2
20:49 71.6 °F 68.2 °F 29.83 in Calm     89% 0 in meteobridge W/m2
20:54 71.6 °F 68.2 °F 29.83 in Calm     89% 0 in meteobridge W/m2
20:59 71.6 °F 68.2 °F 29.83 in Calm     89% 0 in meteobridge W/m2
21:04 71.4 °F 68 °F 29.83 in Calm     89% 0 in meteobridge W/m2
21:09 71.4 °F 68 °F 29.84 in Calm     89% 0 in meteobridge W/m2
21:14 71.4 °F 68 °F 29.84 in Calm     89% 0 in meteobridge W/m2
21:19 71.4 °F 68 °F 29.84 in Calm     89% 0 in meteobridge W/m2
21:24 71.4 °F 68 °F 29.84 in Calm     89% 0 in meteobridge W/m2
21:29 71.4 °F 68 °F 29.84 in Calm     89% 0 in meteobridge W/m2
21:34 71.4 °F 68 °F 29.85 in Calm     89% 0 in meteobridge W/m2
21:39 71.4 °F 68 °F 29.84 in Calm     89% 0 in meteobridge W/m2
21:44 71.4 °F 68 °F 29.84 in Calm     89% 0 in meteobridge W/m2
21:49 71.2 °F 67.8 °F 29.85 in Calm     89% 0 in meteobridge W/m2
21:54 71.2 °F 67.8 °F 29.85 in Calm     89% 0 in meteobridge W/m2
21:59 71.2 °F 67.8 °F 29.85 in Calm     89% 0 in meteobridge W/m2
22:04 71.2 °F 67.8 °F 29.85 in Calm     89% 0 in meteobridge W/m2
22:09 71.2 °F 67.8 °F 29.85 in Calm     89% 0 in meteobridge W/m2
22:14 71.2 °F 67.8 °F 29.85 in Calm     89% 0 in meteobridge W/m2
22:19 71.1 °F 67.6 °F 29.85 in Calm     89% 0 in meteobridge W/m2
22:24 71.1 °F 67.6 °F 29.85 in Calm     89% 0 in meteobridge W/m2
22:29 71.1 °F 67.6 °F 29.85 in Calm     89% 0 in meteobridge W/m2
22:34 71.1 °F 67.6 °F 29.85 in Calm     89% 0 in meteobridge W/m2
22:39 71.1 °F 67.6 °F 29.85 in Calm     89% 0 in meteobridge W/m2
22:44 71.1 °F 67.6 °F 29.85 in Calm     89% 0 in meteobridge W/m2
22:49 70.9 °F 67.5 °F 29.85 in Calm     89% 0 in meteobridge W/m2
22:54 70.9 °F 67.5 °F 29.85 in Calm     89% 0 in meteobridge W/m2
22:59 70.9 °F 67.5 °F 29.86 in Calm     89% 0 in meteobridge W/m2
23:04 70.9 °F 67.5 °F 29.85 in Calm     89% 0 in meteobridge W/m2
23:09 70.9 °F 67.5 °F 29.85 in Calm     89% 0 in meteobridge W/m2
23:14 70.9 °F 67.5 °F 29.86 in Calm     89% 0 in meteobridge W/m2
23:19 70.9 °F 67.5 °F 29.86 in Calm     89% 0 in meteobridge W/m2
23:24 70.9 °F 67.5 °F 29.86 in Calm     89% 0 in meteobridge W/m2
23:29 70.9 °F 67.5 °F 29.86 in Calm     89% 0 in meteobridge W/m2
23:34 70.9 °F 67.5 °F 29.86 in Calm     89% 0 in meteobridge W/m2
23:39 70.9 °F 67.5 °F 29.86 in Calm     89% 0 in meteobridge W/m2
23:44 70.9 °F 67.5 °F 29.86 in Calm     89% 0 in meteobridge W/m2
23:49 70.9 °F 67.5 °F 29.85 in Calm     89% 0 in meteobridge W/m2
23:54 70.9 °F 67.5 °F 29.85 in Calm     89% 0 in meteobridge W/m2
23:59 70.9 °F 67.5 °F 29.86 in Calm     89% 0 in meteobridge W/m2
EllijayWeather
Compliments of Weather Underground - 2.5 mb